Aviation Digital Data Service (ADDS)

Output produced by METARs form (2041 UTC 24 April 2018)
found at http://aviationweather.gov/adds/metars/
 
KGGG 241728Z 2418/2518 33008KT P6SM SKC 
     FM250100 VRB03KT P6SM SKC 
     FM251500 28006KT P6SM SCT080 OVC250